createdAt,value
2016-11-24T00:00:03.763Z,20.76
2016-11-24T00:00:18.134Z,20.75
2016-11-24T00:00:32.565Z,20.57
2016-11-24T00:00:46.937Z,20.63
2016-11-24T00:01:01.377Z,20.75
2016-11-24T00:01:15.729Z,20.72
2016-11-24T00:01:30.311Z,20.75
2016-11-24T00:01:45.616Z,20.76
2016-11-24T00:02:00.108Z,20.81
2016-11-24T00:02:14.564Z,20.79
2016-11-24T00:02:29.384Z,20.81
2016-11-24T00:02:43.938Z,20.78
2016-11-24T00:02:58.403Z,20.76
2016-11-24T00:03:12.887Z,20.67
2016-11-24T00:03:27.380Z,20.63
2016-11-24T00:03:41.956Z,20.63
2016-11-24T00:03:56.649Z,20.66
2016-11-24T00:04:11.210Z,20.71
2016-11-24T00:04:25.793Z,20.57
2016-11-24T00:04:40.439Z,20.78
2016-11-24T00:04:55.033Z,20.75
2016-11-24T00:05:09.572Z,20.66
2016-11-24T00:05:24.837Z,20.68
2016-11-24T00:05:39.884Z,20.57
2016-11-24T00:05:54.472Z,20.67
2016-11-24T00:06:09.305Z,20.6
2016-11-24T00:06:26.723Z,20.6
2016-11-24T00:06:45.319Z,20.63
2016-11-24T00:06:59.831Z,20.63
2016-11-24T00:07:14.644Z,20.64
2016-11-24T00:07:29.532Z,20.64
2016-11-24T00:07:44.122Z,20.63
2016-11-24T00:07:58.656Z,20.63
2016-11-24T00:08:13.159Z,20.64
2016-11-24T00:08:27.639Z,20.61
2016-11-24T00:08:42.193Z,20.6
2016-11-24T00:08:57.596Z,20.54
2016-11-24T00:09:12.368Z,20.56
2016-11-24T00:09:26.829Z,20.57
2016-11-24T00:09:41.451Z,20.61
2016-11-24T00:09:55.962Z,20.57
2016-11-24T00:10:10.481Z,20.54
2016-11-24T00:10:25.259Z,20.56
2016-11-24T00:10:40.016Z,20.42
2016-11-24T00:10:54.747Z,20.57
2016-11-24T00:11:09.432Z,20.49
2016-11-24T00:11:24.060Z,20.44
2016-11-24T00:11:38.942Z,20.54
2016-11-24T00:11:53.925Z,20.56
2016-11-24T00:12:08.798Z,20.54
2016-11-24T00:12:23.627Z,20.54
2016-11-24T00:12:38.330Z,20.53
2016-11-24T00:12:53.577Z,20.51
2016-11-24T00:13:10.047Z,20.49
2016-11-24T00:13:24.776Z,20.54
2016-11-24T00:13:39.423Z,20.6
2016-11-24T00:13:57.742Z,20.41
2016-11-24T00:14:13.146Z,20.56
2016-11-24T00:14:27.764Z,20.49
2016-11-24T00:14:42.281Z,20.54
2016-11-24T00:14:56.704Z,20.53
2016-11-24T00:15:11.495Z,20.51
2016-11-24T00:15:26.244Z,20.49
2016-11-24T00:15:40.916Z,20.56
2016-11-24T00:16:19.005Z,20.54
2016-11-24T00:16:33.801Z,20.51
2016-11-24T00:16:48.280Z,20.49
2016-11-24T00:17:03.127Z,20.51
2016-11-24T00:17:17.970Z,20.46
2016-11-24T00:18:03.468Z,20.51
2016-11-24T00:18:17.967Z,20.48
2016-11-24T00:19:03.376Z,20.54
2016-11-24T00:19:17.753Z,20.49
2016-11-24T00:19:32.288Z,20.49
2016-11-24T00:19:46.899Z,20.48
2016-11-24T00:20:01.363Z,20.48
2016-11-24T00:20:15.977Z,20.49
2016-11-24T00:21:01.545Z,20.42
2016-11-24T00:21:16.079Z,20.46
2016-11-24T00:21:30.521Z,20.42
2016-11-24T00:21:45.048Z,20.48
2016-11-24T00:21:59.527Z,20.48
2016-11-24T00:22:59.561Z,20.41
2016-11-24T00:23:14.033Z,20.44
2016-11-24T00:23:28.470Z,20.48
2016-11-24T00:23:42.897Z,20.42
2016-11-24T00:23:57.583Z,20.44
2016-11-24T00:24:12.054Z,20.41
2016-11-24T00:24:26.483Z,20.48
2016-11-24T00:24:41.105Z,20.48
2016-11-24T00:25:26.603Z,20.49
2016-11-24T00:25:41.251Z,20.48
2016-11-24T00:25:55.764Z,20.41
2016-11-24T00:26:10.245Z,20.42
2016-11-24T00:26:55.584Z,20.44
2016-11-24T00:27:10.161Z,20.42
2016-11-24T00:27:24.637Z,20.48
2016-11-24T00:27:39.062Z,20.44
2016-11-24T00:27:53.465Z,20.46
2016-11-24T00:28:07.972Z,20.53
2016-11-24T00:28:22.518Z,20.53
2016-11-24T00:28:36.875Z,20.48
2016-11-24T00:28:51.346Z,20.49
2016-11-24T00:29:05.857Z,20.44
2016-11-24T00:29:20.281Z,20.42
2016-11-24T00:29:34.686Z,20.42
2016-11-24T00:29:49.254Z,20.46
2016-11-24T00:30:03.772Z,20.48
2016-11-24T00:30:18.169Z,20.44
2016-11-24T00:30:32.946Z,20.46
2016-11-24T00:31:18.431Z,20.38
2016-11-24T00:31:32.849Z,20.4
2016-11-24T00:31:47.277Z,20.49
2016-11-24T00:32:01.864Z,20.48
2016-11-24T00:32:16.424Z,20.49
2016-11-24T00:32:30.800Z,20.49
2016-11-24T00:32:45.258Z,20.49
2016-11-24T00:32:59.728Z,20.49
2016-11-24T00:33:14.203Z,20.48
2016-11-24T00:33:28.631Z,20.44
2016-11-24T00:33:43.076Z,20.51
2016-11-24T00:33:57.513Z,20.46
2016-11-24T00:34:11.988Z,20.51
2016-11-24T00:34:26.722Z,20.48
2016-11-24T00:34:41.722Z,20.49
2016-11-24T00:34:56.500Z,20.58
2016-11-24T00:35:10.955Z,20.56
2016-11-24T00:35:25.412Z,20.49
2016-11-24T00:35:39.842Z,20.51
2016-11-24T00:35:54.259Z,20.49
2016-11-24T00:36:08.663Z,20.49
2016-11-24T00:36:23.112Z,20.49
2016-11-24T00:36:37.479Z,20.44
2016-11-24T00:37:11.220Z,20.49
2016-11-24T00:37:25.731Z,20.46
2016-11-24T00:37:40.209Z,20.54
2016-11-24T00:37:54.581Z,20.46
2016-11-24T00:38:12.060Z,20.54
2016-11-24T00:38:26.566Z,20.46
2016-11-24T00:38:41.015Z,20.49
2016-11-24T00:38:55.442Z,20.56
2016-11-24T00:39:09.854Z,20.46
2016-11-24T00:39:24.288Z,20.53
2016-11-24T00:39:38.715Z,20.56
2016-11-24T00:39:53.173Z,20.44
2016-11-24T00:40:07.573Z,20.48
2016-11-24T00:40:21.985Z,20.54
2016-11-24T00:40:36.384Z,20.49
2016-11-24T00:40:50.808Z,20.54
2016-11-24T00:41:05.119Z,20.61
2016-11-24T00:41:19.614Z,20.54
2016-11-24T00:42:19.519Z,20.48
2016-11-24T00:42:33.919Z,20.56
2016-11-24T00:42:48.255Z,20.61
2016-11-24T00:43:02.720Z,20.61
2016-11-24T00:43:17.172Z,20.57
2016-11-24T00:43:31.597Z,20.56
2016-11-24T00:43:46.015Z,20.6
2016-11-24T00:44:00.388Z,20.63
2016-11-24T00:44:14.733Z,20.49
2016-11-24T00:44:29.144Z,20.61
2016-11-24T00:44:43.582Z,20.6
2016-11-24T00:44:58.013Z,20.42
2016-11-24T00:45:12.405Z,20.49
2016-11-24T00:45:26.823Z,20.46
2016-11-24T00:45:41.398Z,20.46
2016-11-24T00:45:55.852Z,20.51
2016-11-24T00:46:10.275Z,20.48
2016-11-24T00:46:24.608Z,20.48
2016-11-24T00:46:38.978Z,20.51
2016-11-24T00:46:53.368Z,20.48
2016-11-24T00:47:07.777Z,20.49
2016-11-24T00:47:22.261Z,20.56
2016-11-24T00:47:36.659Z,20.51
2016-11-24T00:47:51.148Z,20.56
2016-11-24T00:48:31.218Z,20.46
2016-11-24T00:48:45.593Z,20.48
2016-11-24T00:48:59.944Z,20.46
2016-11-24T00:49:14.363Z,20.48
2016-11-24T00:49:28.767Z,20.51
2016-11-24T00:49:43.280Z,20.54
2016-11-24T00:49:57.678Z,20.54
2016-11-24T00:50:12.102Z,20.53
2016-11-24T00:50:26.577Z,20.53
2016-11-24T00:50:41.017Z,20.42
2016-11-24T00:51:26.417Z,20.57
2016-11-24T00:51:40.892Z,20.54
2016-11-24T00:52:26.237Z,20.44
2016-11-24T00:52:40.617Z,20.51
2016-11-24T00:52:55.055Z,20.49
2016-11-24T00:53:09.540Z,20.58
2016-11-24T00:53:23.975Z,20.46
2016-11-24T00:53:38.467Z,20.48
2016-11-24T00:53:52.953Z,20.51
2016-11-24T00:54:38.311Z,20.42
2016-11-24T00:54:52.723Z,20.58
2016-11-24T00:55:07.085Z,20.51
2016-11-24T00:55:21.493Z,20.49
2016-11-24T00:55:35.792Z,20.6
2016-11-24T00:55:50.247Z,20.6
2016-11-24T00:56:04.759Z,20.54
2016-11-24T00:56:19.244Z,20.6
2016-11-24T00:56:33.633Z,20.61
2016-11-24T00:56:55.139Z,20.63
2016-11-24T00:57:09.521Z,20.57
2016-11-24T00:57:23.835Z,20.6
2016-11-24T00:57:38.280Z,20.57
2016-11-24T00:57:52.685Z,20.64
2016-11-24T00:58:07.157Z,20.66
2016-11-24T00:58:21.681Z,20.63
2016-11-24T00:58:36.177Z,20.57
2016-11-24T00:58:50.544Z,20.57
2016-11-24T00:59:05.042Z,20.6
2016-11-24T00:59:19.472Z,20.56
2016-11-24T00:59:33.842Z,20.53
2016-11-24T00:59:48.279Z,20.63
2016-11-24T01:00:02.710Z,20.51
2016-11-24T01:00:17.142Z,20.42
2016-11-24T01:00:31.483Z,20.51
2016-11-24T01:00:46.172Z,20.51
2016-11-24T01:01:00.544Z,20.53
2016-11-24T01:01:14.878Z,20.42
2016-11-24T01:01:29.272Z,20.49
2016-11-24T01:02:14.589Z,20.4
2016-11-24T01:02:29.045Z,20.42
2016-11-24T01:02:43.439Z,20.46
2016-11-24T01:02:57.808Z,20.38
2016-11-24T01:03:12.251Z,20.37
2016-11-24T01:03:26.647Z,20.37
2016-11-24T01:03:41.039Z,20.37
2016-11-24T01:03:55.483Z,20.42
2016-11-24T01:04:09.904Z,20.34
2016-11-24T01:04:24.299Z,20.32
2016-11-24T01:04:38.781Z,20.37
2016-11-24T01:04:53.230Z,20.34
2016-11-24T01:05:07.613Z,20.4
2016-11-24T01:05:22.026Z,20.44
2016-11-24T01:05:36.412Z,20.44
2016-11-24T01:05:50.851Z,20.4
2016-11-24T01:06:05.208Z,20.42
2016-11-24T01:06:19.627Z,20.41
2016-11-24T01:06:34.058Z,20.37
2016-11-24T01:06:48.467Z,20.48
2016-11-24T01:07:02.871Z,20.35
2016-11-24T01:07:17.281Z,20.34
2016-11-24T01:07:31.630Z,20.35
2016-11-24T01:07:46.019Z,20.37
2016-11-24T01:08:00.347Z,20.35
2016-11-24T01:08:14.753Z,20.35
2016-11-24T01:08:29.250Z,20.34
2016-11-24T01:08:43.773Z,20.4
2016-11-24T01:08:58.173Z,20.38
2016-11-24T01:09:12.606Z,20.37
2016-11-24T01:09:26.876Z,20.35
2016-11-24T01:09:41.221Z,20.44
2016-11-24T01:09:55.695Z,20.41
2016-11-24T01:10:10.161Z,20.44
2016-11-24T01:10:24.572Z,20.42
2016-11-24T01:10:38.987Z,20.44
2016-11-24T01:10:53.416Z,20.49
2016-11-24T01:11:07.742Z,20.49
2016-11-24T01:11:22.136Z,20.49
2016-11-24T01:11:36.565Z,20.44
2016-11-24T01:11:51.027Z,20.51
2016-11-24T01:12:05.420Z,20.46
2016-11-24T01:12:19.799Z,20.53
2016-11-24T01:12:34.114Z,20.49
2016-11-24T01:12:48.455Z,20.46
2016-11-24T01:13:02.823Z,20.56
2016-11-24T01:13:48.197Z,20.4
2016-11-24T01:14:02.632Z,20.48
2016-11-24T01:15:02.419Z,20.44
2016-11-24T01:15:16.830Z,20.37
2016-11-24T01:15:31.206Z,20.41
2016-11-24T01:15:45.946Z,20.42
2016-11-24T01:16:45.880Z,20.37
2016-11-24T01:17:00.336Z,20.4
2016-11-24T01:17:14.788Z,20.4
2016-11-24T01:17:29.238Z,20.35
2016-11-24T01:17:43.672Z,20.37
2016-11-24T01:17:58.132Z,20.41
2016-11-24T01:18:12.524Z,20.4
2016-11-24T01:18:26.866Z,20.44
2016-11-24T01:18:41.232Z,20.4
2016-11-24T01:18:55.700Z,20.35
2016-11-24T01:19:10.179Z,20.38
2016-11-24T01:19:24.567Z,20.46
2016-11-24T01:19:38.910Z,20.41
2016-11-24T01:19:53.237Z,20.46
2016-11-24T01:20:07.607Z,20.48
2016-11-24T01:20:21.998Z,20.51
2016-11-24T01:20:36.354Z,20.49
2016-11-24T01:21:21.672Z,20.49
2016-11-24T01:21:36.115Z,20.57
2016-11-24T01:21:50.474Z,20.57
2016-11-24T01:22:04.945Z,20.57
2016-11-24T01:22:19.382Z,20.57
2016-11-24T01:22:33.788Z,20.61
2016-11-24T01:22:48.238Z,20.61
2016-11-24T01:23:02.635Z,20.66
2016-11-24T01:23:16.978Z,20.61
2016-11-24T01:23:31.393Z,20.71
2016-11-24T01:23:45.810Z,20.72
2016-11-24T01:24:00.195Z,20.71
2016-11-24T01:24:14.576Z,20.64
2016-11-24T01:24:29.019Z,20.66
2016-11-24T01:24:43.379Z,20.61
2016-11-24T01:24:57.752Z,20.66
2016-11-24T01:25:12.110Z,20.72
2016-11-24T01:25:26.482Z,20.75
2016-11-24T01:25:40.968Z,20.75
2016-11-24T01:25:55.377Z,20.78
2016-11-24T01:26:09.767Z,20.72
2016-11-24T01:26:24.186Z,20.76
2016-11-24T01:26:38.605Z,20.72
2016-11-24T01:26:53.006Z,20.81
2016-11-24T01:27:07.449Z,20.83
2016-11-24T01:27:21.856Z,20.79
2016-11-24T01:27:36.193Z,20.82
2016-11-24T01:28:35.891Z,20.78
2016-11-24T01:28:50.350Z,20.86
2016-11-24T01:29:04.688Z,20.86
2016-11-24T01:29:19.122Z,20.9
2016-11-24T01:29:33.502Z,20.9
2016-11-24T01:29:47.903Z,20.9
2016-11-24T01:30:02.262Z,20.97
2016-11-24T01:30:16.603Z,20.93
2016-11-24T01:30:31.074Z,21.03
2016-11-24T01:30:45.464Z,21
2016-11-24T01:31:00.134Z,21.04
2016-11-24T01:31:14.531Z,21.06
2016-11-24T01:31:28.938Z,21.03
2016-11-24T01:31:43.249Z,21.08
2016-11-24T01:31:57.588Z,21.04
2016-11-24T01:32:12.001Z,21.08
2016-11-24T01:32:26.428Z,21.08
2016-11-24T01:32:40.802Z,21.06
2016-11-24T01:32:55.141Z,21.06
2016-11-24T01:33:09.530Z,21.08
2016-11-24T01:33:23.982Z,21.08
2016-11-24T01:33:38.632Z,21.09
2016-11-24T01:33:53.003Z,21.01
2016-11-24T01:34:07.379Z,21.08
2016-11-24T01:34:21.779Z,21.06
2016-11-24T01:34:36.145Z,21.06
2016-11-24T01:34:50.577Z,21.06
2016-11-24T01:35:04.927Z,21.09
2016-11-24T01:35:19.333Z,21.06
2016-11-24T01:35:33.759Z,20.98
2016-11-24T01:35:48.191Z,20.97
2016-11-24T01:36:02.621Z,20.97
2016-11-24T01:36:17.039Z,21.06
2016-11-24T01:36:31.478Z,20.96
2016-11-24T01:36:45.826Z,20.98
2016-11-24T01:37:00.273Z,20.88
2016-11-24T01:37:14.608Z,20.97
2016-11-24T01:37:29.003Z,20.88
2016-11-24T01:37:43.405Z,20.85
2016-11-24T01:38:28.713Z,20.86
2016-11-24T01:38:43.094Z,20.85
2016-11-24T01:38:57.518Z,20.81
2016-11-24T01:39:11.901Z,20.88
2016-11-24T01:39:26.292Z,20.9
2016-11-24T01:39:40.686Z,20.9
2016-11-24T01:39:55.117Z,20.79
2016-11-24T01:40:09.490Z,20.9
2016-11-24T01:40:23.895Z,20.83
2016-11-24T01:40:38.300Z,20.81
2016-11-24T01:40:52.644Z,20.85
2016-11-24T01:41:07.042Z,20.81
2016-11-24T01:41:21.401Z,20.98
2016-11-24T01:41:35.796Z,20.91
2016-11-24T01:41:50.200Z,20.93
2016-11-24T01:42:04.526Z,20.81
2016-11-24T01:42:18.948Z,20.9
2016-11-24T01:42:33.362Z,20.88
2016-11-24T01:42:47.794Z,20.98
2016-11-24T01:43:02.198Z,20.94
2016-11-24T01:43:16.626Z,21.03
2016-11-24T01:43:30.964Z,21.06
2016-11-24T01:43:45.406Z,20.97
2016-11-24T01:43:59.795Z,21.01
2016-11-24T01:44:14.236Z,21.01
2016-11-24T01:44:28.609Z,21.01
2016-11-24T01:44:42.991Z,21.09
2016-11-24T01:44:57.353Z,21.01
2016-11-24T01:45:11.712Z,21
2016-11-24T01:45:26.077Z,21.04
2016-11-24T01:46:26.007Z,20.94
2016-11-24T01:46:40.426Z,20.96
2016-11-24T01:46:54.791Z,20.93
2016-11-24T01:47:40.114Z,20.83
2016-11-24T01:47:54.432Z,20.82
2016-11-24T01:48:08.843Z,20.88
2016-11-24T01:48:23.226Z,20.79
2016-11-24T01:48:37.624Z,20.81
2016-11-24T01:48:52.013Z,20.82
2016-11-24T01:49:06.404Z,20.83
2016-11-24T01:49:20.854Z,20.76
2016-11-24T01:49:35.150Z,20.85
2016-11-24T01:49:49.516Z,20.86
2016-11-24T01:50:03.880Z,20.81
2016-11-24T01:50:18.304Z,20.79
2016-11-24T01:50:32.761Z,20.81
2016-11-24T01:50:47.140Z,20.78
2016-11-24T01:51:01.482Z,20.74
2016-11-24T01:51:46.793Z,20.66
2016-11-24T01:52:01.155Z,20.61
2016-11-24T01:52:15.520Z,20.58
2016-11-24T01:52:29.992Z,20.68
2016-11-24T01:52:44.410Z,20.68
2016-11-24T01:52:58.830Z,20.56
2016-11-24T01:53:13.219Z,20.63
2016-11-24T01:53:27.677Z,20.63
2016-11-24T01:53:42.122Z,20.71
2016-11-24T01:53:56.515Z,20.68
2016-11-24T01:54:10.941Z,20.64
2016-11-24T01:54:25.377Z,20.68
2016-11-24T01:54:39.818Z,20.64
2016-11-24T01:54:54.159Z,20.67
2016-11-24T01:55:08.576Z,20.64
2016-11-24T01:55:22.997Z,20.64
2016-11-24T01:55:37.394Z,20.67
2016-11-24T01:55:51.755Z,20.67
2016-11-24T01:56:06.135Z,20.68
2016-11-24T01:56:20.570Z,20.67
2016-11-24T01:57:20.278Z,20.63
2016-11-24T01:57:34.774Z,20.57
2016-11-24T01:57:49.173Z,20.64
2016-11-24T01:58:03.558Z,20.67
2016-11-24T01:58:17.908Z,20.64
2016-11-24T01:58:32.299Z,20.63
2016-11-24T01:58:46.691Z,20.6
2016-11-24T01:59:01.028Z,20.64
2016-11-24T01:59:15.456Z,20.6
2016-11-24T01:59:29.771Z,20.54
2016-11-24T01:59:44.111Z,20.66
2016-11-24T01:59:58.535Z,20.56
2016-11-24T02:00:12.914Z,20.54
2016-11-24T02:00:27.366Z,20.64
2016-11-24T02:00:41.720Z,20.67
2016-11-24T02:00:56.091Z,20.57
2016-11-24T02:01:10.455Z,20.66
2016-11-24T02:01:24.839Z,20.64
2016-11-24T02:01:39.194Z,20.64
2016-11-24T02:01:53.608Z,20.6
2016-11-24T02:02:08.040Z,20.67
2016-11-24T02:02:22.648Z,20.6
2016-11-24T02:02:37.046Z,20.63
2016-11-24T02:02:51.374Z,20.63
2016-11-24T02:03:05.825Z,20.61
2016-11-24T02:03:20.291Z,20.64
2016-11-24T02:03:34.646Z,20.64
2016-11-24T02:03:49.040Z,20.58
2016-11-24T02:04:03.453Z,20.6
2016-11-24T02:04:17.851Z,20.63
2016-11-24T02:04:32.226Z,20.61
2016-11-24T02:04:46.611Z,20.66
2016-11-24T02:05:00.987Z,20.57
2016-11-24T02:05:15.340Z,20.67
2016-11-24T02:05:29.745Z,20.66
2016-11-24T02:05:44.136Z,20.64
2016-11-24T02:05:58.514Z,20.71
2016-11-24T02:06:12.869Z,20.63
2016-11-24T02:06:27.266Z,20.71
2016-11-24T02:06:41.690Z,20.71
2016-11-24T02:06:56.100Z,20.74
2016-11-24T02:07:10.409Z,20.83
2016-11-24T02:07:24.796Z,20.83
2016-11-24T02:07:39.195Z,20.85
2016-11-24T02:07:53.572Z,20.72
2016-11-24T02:08:08.065Z,20.71
2016-11-24T02:08:22.621Z,20.72
2016-11-24T02:08:36.999Z,20.63
2016-11-24T02:08:51.420Z,20.6
2016-11-24T02:09:05.814Z,20.64
2016-11-24T02:09:20.201Z,20.67
2016-11-24T02:09:34.527Z,20.58
2016-11-24T02:09:48.909Z,20.71
2016-11-24T02:10:03.327Z,20.63
2016-11-24T02:10:17.745Z,20.61
2016-11-24T02:10:32.149Z,20.61
2016-11-24T02:10:46.527Z,20.63
2016-11-24T02:11:01.166Z,20.58
2016-11-24T02:11:15.551Z,20.6
2016-11-24T02:11:29.954Z,20.57
2016-11-24T02:11:44.362Z,20.54
2016-11-24T02:11:58.769Z,20.56
2016-11-24T02:12:13.233Z,20.56
2016-11-24T02:12:27.631Z,20.64
2016-11-24T02:12:41.967Z,20.63
2016-11-24T02:12:56.347Z,20.58
2016-11-24T02:13:10.745Z,20.51
2016-11-24T02:13:25.194Z,20.6
2016-11-24T02:13:39.579Z,20.61
2016-11-24T02:13:53.904Z,20.6
2016-11-24T02:14:08.371Z,20.64
2016-11-24T02:14:22.736Z,20.58
2016-11-24T02:14:37.194Z,20.63
2016-11-24T02:14:51.612Z,20.6
2016-11-24T02:15:06.029Z,20.56
2016-11-24T02:15:20.380Z,20.53
2016-11-24T02:15:34.799Z,20.57
2016-11-24T02:15:49.206Z,20.74
2016-11-24T02:16:03.620Z,20.66
2016-11-24T02:16:18.006Z,20.68
2016-11-24T02:16:32.453Z,20.63
2016-11-24T02:16:46.853Z,20.68
2016-11-24T02:17:01.296Z,20.58
2016-11-24T02:17:15.734Z,20.68
2016-11-24T02:17:30.520Z,20.71
2016-11-24T02:17:44.943Z,20.72
2016-11-24T02:17:59.356Z,20.57
2016-11-24T02:18:13.722Z,20.58
2016-11-24T02:18:28.123Z,20.68
2016-11-24T02:18:42.485Z,20.57
2016-11-24T02:18:56.889Z,20.58
2016-11-24T02:19:11.229Z,20.6
2016-11-24T02:19:25.608Z,20.72
2016-11-24T02:19:40.106Z,20.67
2016-11-24T02:19:54.477Z,20.56
2016-11-24T02:20:08.894Z,20.53
2016-11-24T02:20:23.239Z,20.63
2016-11-24T02:20:37.602Z,20.74
2016-11-24T02:20:52.019Z,20.61
2016-11-24T02:21:06.419Z,20.58
2016-11-24T02:21:20.912Z,20.66
2016-11-24T02:21:35.322Z,20.68
2016-11-24T02:21:49.696Z,20.58
2016-11-24T02:22:04.076Z,20.63
2016-11-24T02:22:18.489Z,20.58
2016-11-24T02:22:32.829Z,20.6
2016-11-24T02:22:47.201Z,20.64
2016-11-24T02:23:01.596Z,20.64
2016-11-24T02:23:15.902Z,20.63
2016-11-24T02:23:30.228Z,20.66
2016-11-24T02:23:44.613Z,20.66
2016-11-24T02:23:59.073Z,20.71
2016-11-24T02:24:13.420Z,20.67
2016-11-24T02:24:27.755Z,20.51
2016-11-24T02:24:42.171Z,20.64
2016-11-24T02:24:56.507Z,20.67
2016-11-24T02:25:10.960Z,20.71
2016-11-24T02:25:25.330Z,20.66
2016-11-24T02:25:39.709Z,20.63
2016-11-24T02:25:54.111Z,20.67
2016-11-24T02:26:08.513Z,20.63
2016-11-24T02:26:22.928Z,20.64
2016-11-24T02:26:37.354Z,20.74
2016-11-24T02:26:51.775Z,20.81
2016-11-24T02:27:37.144Z,20.76
2016-11-24T02:27:51.521Z,20.79
2016-11-24T02:28:05.904Z,20.79
2016-11-24T02:28:51.265Z,20.79
2016-11-24T02:29:05.631Z,20.78
2016-11-24T02:29:20.005Z,20.79
2016-11-24T02:29:34.408Z,20.79
2016-11-24T02:29:48.872Z,20.82
2016-11-24T02:30:03.274Z,20.79
2016-11-24T02:30:17.679Z,20.76
2016-11-24T02:30:32.063Z,20.81
2016-11-24T02:30:46.500Z,20.79
2016-11-24T02:31:00.906Z,20.72
2016-11-24T02:31:15.358Z,20.72
2016-11-24T02:31:29.724Z,20.74
2016-11-24T02:31:44.112Z,20.64
2016-11-24T02:31:58.544Z,20.68
2016-11-24T02:32:12.991Z,20.72
2016-11-24T02:33:29.630Z,20.67
2016-11-24T02:33:44.003Z,20.61
2016-11-24T02:33:58.438Z,20.72
2016-11-24T02:34:12.896Z,20.67
2016-11-24T02:34:27.291Z,20.57
2016-11-24T02:34:41.655Z,20.6
2016-11-24T02:34:56.030Z,20.63
2016-11-24T02:35:10.459Z,20.71
2016-11-24T02:35:24.815Z,20.6
2016-11-24T02:35:39.184Z,20.71
2016-11-24T02:35:53.660Z,20.68
2016-11-24T02:36:08.043Z,20.66
2016-11-24T02:37:07.808Z,20.56
2016-11-24T02:37:22.225Z,20.67
2016-11-24T02:37:36.626Z,20.76
2016-11-24T02:37:51.044Z,20.71
2016-11-24T02:38:05.400Z,20.68
2016-11-24T02:38:19.813Z,20.68
2016-11-24T02:39:05.188Z,20.58
2016-11-24T02:39:19.582Z,20.61
2016-11-24T02:39:33.909Z,20.67
2016-11-24T02:39:48.217Z,20.61
2016-11-24T02:40:02.578Z,20.68
2016-11-24T02:40:16.996Z,20.68
2016-11-24T02:40:31.397Z,20.72
2016-11-24T02:40:45.761Z,20.66
2016-11-24T02:41:31.076Z,20.75
2016-11-24T02:41:45.481Z,20.82
2016-11-24T02:41:59.912Z,20.76
2016-11-24T02:42:14.309Z,20.79
2016-11-24T02:42:28.739Z,20.82
2016-11-24T02:42:43.166Z,20.83
2016-11-24T02:42:57.577Z,20.79
2016-11-24T02:43:11.908Z,20.79
2016-11-24T02:43:26.261Z,20.75
2016-11-24T02:43:40.656Z,20.79
2016-11-24T02:43:55.067Z,20.81
2016-11-24T02:44:09.530Z,20.79
2016-11-24T02:44:23.929Z,20.83
2016-11-24T02:44:38.284Z,20.83
2016-11-24T02:44:52.648Z,20.88
2016-11-24T02:45:07.031Z,20.83
2016-11-24T02:45:21.420Z,20.88
2016-11-24T02:45:35.827Z,20.83
2016-11-24T02:45:50.218Z,20.93
2016-11-24T02:46:04.654Z,20.9
2016-11-24T02:46:19.097Z,20.94
2016-11-24T02:46:33.546Z,20.96
2016-11-24T02:46:47.911Z,21.03
2016-11-24T02:47:33.257Z,21.04
2016-11-24T02:47:47.619Z,21.03
2016-11-24T02:48:02.364Z,21.03
2016-11-24T02:48:16.765Z,21
2016-11-24T02:48:31.084Z,20.97
2016-11-24T02:48:45.443Z,21.04
2016-11-24T02:48:59.854Z,21.06
2016-11-24T02:49:14.252Z,21.04
2016-11-24T02:49:59.595Z,20.97
2016-11-24T02:50:44.867Z,21.03
2016-11-24T02:50:59.293Z,21.03
2016-11-24T02:51:13.706Z,20.96
2016-11-24T02:51:28.080Z,21.08
2016-11-24T02:51:42.465Z,21.06
2016-11-24T02:51:56.880Z,21.03
2016-11-24T02:52:11.221Z,21.06
2016-11-24T02:52:25.656Z,21.08
2016-11-24T02:52:40.044Z,21.11
2016-11-24T02:52:54.442Z,21.16
2016-11-24T02:53:08.838Z,21.15
2016-11-24T02:53:23.266Z,21.12
2016-11-24T02:53:37.615Z,21.18
2016-11-24T02:53:51.963Z,21.23
2016-11-24T02:54:06.315Z,21.18
2016-11-24T02:54:20.770Z,21.21
2016-11-24T02:54:35.208Z,21.21
2016-11-24T02:54:49.593Z,21.31
2016-11-24T02:55:03.897Z,21.27
2016-11-24T02:55:49.192Z,21.33
2016-11-24T02:56:34.526Z,21.4
2016-11-24T02:56:48.906Z,21.36
2016-11-24T02:57:03.268Z,21.41
2016-11-24T02:57:17.681Z,21.3
2016-11-24T02:58:03.036Z,21.33
2016-11-24T02:58:17.460Z,21.31
2016-11-24T02:58:31.837Z,21.28
2016-11-24T02:59:17.145Z,21.28
2016-11-24T02:59:31.558Z,21.27
2016-11-24T03:00:11.651Z,21.21
2016-11-24T03:00:26.050Z,21.11
2016-11-24T03:00:40.436Z,21.12
2016-11-24T03:00:54.802Z,21.16
2016-11-24T03:01:34.835Z,21.09
2016-11-24T03:01:49.274Z,21.09
2016-11-24T03:02:49.070Z,21.01
2016-11-24T03:03:03.454Z,21.09
2016-11-24T03:03:18.130Z,21.09
2016-11-24T03:03:32.480Z,21.01
2016-11-24T03:03:46.898Z,21
2016-11-24T03:04:01.327Z,21
2016-11-24T03:04:15.746Z,20.98
2016-11-24T03:04:30.134Z,21
2016-11-24T03:04:44.622Z,21.01
2016-11-24T03:04:59.038Z,20.97
2016-11-24T03:05:13.413Z,21
2016-11-24T03:05:27.851Z,21
2016-11-24T03:05:42.227Z,20.91
2016-11-24T03:05:56.585Z,20.97
2016-11-24T03:06:10.994Z,20.97
2016-11-24T03:06:25.389Z,20.93
2016-11-24T03:06:39.800Z,20.9
2016-11-24T03:06:54.234Z,20.93
2016-11-24T03:07:08.699Z,20.94
2016-11-24T03:07:23.171Z,20.85
2016-11-24T03:07:37.557Z,20.94
2016-11-24T03:07:51.921Z,20.9
2016-11-24T03:08:06.273Z,20.75
2016-11-24T03:08:20.674Z,20.83
2016-11-24T03:08:35.121Z,20.76
2016-11-24T03:08:49.502Z,20.81
2016-11-24T03:09:03.940Z,20.64
2016-11-24T03:09:18.323Z,20.64
2016-11-24T03:09:32.725Z,20.63
2016-11-24T03:09:47.146Z,20.75
2016-11-24T03:10:01.475Z,20.56
2016-11-24T03:10:15.909Z,20.63
2016-11-24T03:10:30.388Z,20.63
2016-11-24T03:10:44.791Z,20.63
2016-11-24T03:10:59.200Z,20.66
2016-11-24T03:11:13.626Z,20.67
2016-11-24T03:11:28.129Z,20.61
2016-11-24T03:11:42.600Z,20.67
2016-11-24T03:11:57.002Z,20.58
2016-11-24T03:12:11.399Z,20.66
2016-11-24T03:12:25.879Z,20.57
2016-11-24T03:12:40.351Z,20.57
2016-11-24T03:12:54.797Z,20.54
2016-11-24T03:13:09.175Z,20.64
2016-11-24T03:13:23.611Z,20.56
2016-11-24T03:13:38.023Z,20.49
2016-11-24T03:13:52.498Z,20.6
2016-11-24T03:14:06.905Z,20.58
2016-11-24T03:14:21.325Z,20.58
2016-11-24T03:14:35.701Z,20.53
2016-11-24T03:14:50.076Z,20.56
2016-11-24T03:15:04.508Z,20.46
2016-11-24T03:15:18.896Z,20.6
2016-11-24T03:15:33.361Z,20.61
2016-11-24T03:15:47.777Z,20.53
2016-11-24T03:16:02.218Z,20.56
2016-11-24T03:16:16.614Z,20.54
2016-11-24T03:16:31.033Z,20.64
2016-11-24T03:16:45.436Z,20.64
2016-11-24T03:16:59.874Z,20.6
2016-11-24T03:17:14.227Z,20.63
2016-11-24T03:17:28.590Z,20.57
2016-11-24T03:17:43.682Z,20.6
2016-11-24T03:17:58.160Z,20.64
2016-11-24T03:18:12.588Z,20.66
2016-11-24T03:18:27.359Z,20.74
2016-11-24T03:18:41.810Z,20.61
2016-11-24T03:18:56.281Z,20.67
2016-11-24T03:19:10.718Z,20.75
2016-11-24T03:19:25.108Z,20.81
2016-11-24T03:19:39.518Z,20.75
2016-11-24T03:19:53.919Z,20.86
2016-11-24T03:20:08.348Z,20.81
2016-11-24T03:20:22.783Z,20.81
2016-11-24T03:20:37.195Z,20.81
2016-11-24T03:20:51.565Z,20.86
2016-11-24T03:21:05.947Z,20.79
2016-11-24T03:21:20.325Z,20.86
2016-11-24T03:21:34.680Z,20.79
2016-11-24T03:21:49.111Z,20.88
2016-11-24T03:22:03.517Z,20.79
2016-11-24T03:22:17.958Z,20.86
2016-11-24T03:22:32.372Z,20.79
2016-11-24T03:22:46.762Z,20.78
2016-11-24T03:23:01.202Z,20.82
2016-11-24T03:23:15.706Z,20.85
2016-11-24T03:23:30.129Z,20.83
2016-11-24T03:23:44.547Z,20.86
2016-11-24T03:23:59.033Z,20.85
2016-11-24T03:24:13.393Z,20.86
2016-11-24T03:24:27.800Z,20.85
2016-11-24T03:24:42.198Z,20.83
2016-11-24T03:24:56.605Z,20.86
2016-11-24T03:25:11.012Z,20.85
2016-11-24T03:25:25.419Z,20.85
2016-11-24T03:25:39.834Z,20.88
2016-11-24T03:25:54.237Z,20.91
2016-11-24T03:26:08.720Z,20.94
2016-11-24T03:26:23.139Z,20.88
2016-11-24T03:26:37.519Z,20.88
2016-11-24T03:26:51.965Z,20.96
2016-11-24T03:27:06.396Z,20.93
2016-11-24T03:27:20.829Z,20.9
2016-11-24T03:27:35.249Z,20.97
2016-11-24T03:27:49.749Z,20.93
2016-11-24T03:28:04.122Z,20.93
2016-11-24T03:28:18.578Z,20.88
2016-11-24T03:28:32.962Z,20.96
2016-11-24T03:28:47.411Z,20.88
2016-11-24T03:29:01.877Z,20.97
2016-11-24T03:29:16.269Z,20.93
2016-11-24T03:30:01.611Z,20.88
2016-11-24T03:30:15.956Z,20.96
2016-11-24T03:30:30.354Z,20.82
2016-11-24T03:30:44.757Z,20.91